createdAt,value
2019-05-21T00:01:54.909Z,12.10
2019-05-21T00:04:28.269Z,6.80
2019-05-21T00:06:55.985Z,8.53
2019-05-21T00:09:25.691Z,9.60
2019-05-21T00:11:55.384Z,9.87
2019-05-21T00:14:25.076Z,6.97
2019-05-21T00:16:54.927Z,10.63
2019-05-21T00:19:24.624Z,8.40
2019-05-21T00:21:54.328Z,7.97
2019-05-21T00:24:24.011Z,7.30
2019-05-21T00:26:53.759Z,9.03
2019-05-21T00:30:00.076Z,10.63
2019-05-21T00:33:06.098Z,9.57
2019-05-21T00:36:12.257Z,10.47
2019-05-21T00:39:18.094Z,8.47
2019-05-21T00:42:08.930Z,9.37
2019-05-21T00:44:43.470Z,8.83
2019-05-21T00:47:14.132Z,9.97
2019-05-21T00:49:43.876Z,11.17
2019-05-21T00:52:13.732Z,11.77
2019-05-21T00:54:43.549Z,12.50
2019-05-21T00:57:13.467Z,12.90
2019-05-21T00:59:43.255Z,13.17
2019-05-21T01:02:13.047Z,11.67
2019-05-21T01:04:42.788Z,10.83
2019-05-21T01:07:12.657Z,12.83
2019-05-21T01:09:42.408Z,11.67
2019-05-21T01:12:12.311Z,16.20
2019-05-21T01:14:42.101Z,15.00
2019-05-21T01:17:11.991Z,15.83
2019-05-21T01:19:41.730Z,19.20
2019-05-21T01:22:11.583Z,18.43
2019-05-21T01:24:41.410Z,19.73
2019-05-21T01:27:11.237Z,21.17
2019-05-21T01:29:40.971Z,20.00
2019-05-21T01:32:10.857Z,24.03
2019-05-21T01:34:40.567Z,18.73
2019-05-21T01:37:10.383Z,23.93
2019-05-21T01:39:40.129Z,22.43
2019-05-21T01:42:10.030Z,20.23
2019-05-21T01:44:39.778Z,24.13
2019-05-21T01:47:09.634Z,25.50
2019-05-21T01:49:39.387Z,24.67
2019-05-21T01:52:09.227Z,24.47
2019-05-21T01:54:39.020Z,26.40
2019-05-21T01:57:08.856Z,25.87
2019-05-21T01:59:38.611Z,22.73
2019-05-21T02:02:08.384Z,27.97
2019-05-21T02:04:38.222Z,27.63
2019-05-21T02:07:07.986Z,27.47
2019-05-21T02:09:51.816Z,27.60
2019-05-21T02:12:21.624Z,31.27
2019-05-21T02:14:51.514Z,30.57
2019-05-21T02:17:21.361Z,26.33
2019-05-21T02:19:51.105Z,34.07
2019-05-21T02:22:20.922Z,29.90
2019-05-21T02:24:50.807Z,35.70
2019-05-21T02:27:20.545Z,34.70
2019-05-21T02:29:50.557Z,33.63
2019-05-21T02:32:20.375Z,32.53
2019-05-21T02:34:50.284Z,31.03
2019-05-21T02:37:20.110Z,31.07
2019-05-21T02:39:49.858Z,31.70
2019-05-21T02:42:19.699Z,38.43
2019-05-21T02:44:53.712Z,34.03
2019-05-21T02:47:21.223Z,36.17
2019-05-21T02:49:50.961Z,35.70
2019-05-21T02:52:20.801Z,37.00
2019-05-21T02:54:50.697Z,35.30
2019-05-21T02:57:20.537Z,38.27
2019-05-21T02:59:51.935Z,37.57
2019-05-21T03:02:23.342Z,42.13
2019-05-21T03:04:53.155Z,39.40
2019-05-21T03:07:25.578Z,42.70
2019-05-21T03:09:54.475Z,42.37
2019-05-21T03:12:24.189Z,41.77
2019-05-21T03:14:53.870Z,43.63
2019-05-21T03:17:23.647Z,42.90
2019-05-21T03:19:53.405Z,41.27
2019-05-21T03:22:23.213Z,53.17
2019-05-21T03:24:52.961Z,42.40
2019-05-21T03:27:22.713Z,46.63
2019-05-21T03:29:52.457Z,46.73
2019-05-21T03:32:22.363Z,49.57
2019-05-21T03:34:52.191Z,47.00
2019-05-21T03:37:21.960Z,48.50
2019-05-21T03:39:51.785Z,48.00
2019-05-21T03:42:21.745Z,53.37
2019-05-21T03:44:59.866Z,56.57
2019-05-21T03:47:23.065Z,51.97
2019-05-21T03:49:53.566Z,48.57
2019-05-21T03:52:23.445Z,54.53
2019-05-21T03:54:53.264Z,51.57
2019-05-21T03:57:23.978Z,54.60
2019-05-21T03:59:53.807Z,48.30
2019-05-21T04:02:23.546Z,53.63
2019-05-21T04:04:53.309Z,52.93
2019-05-21T04:07:23.098Z,49.13
2019-05-21T04:09:52.933Z,54.87
2019-05-21T04:12:22.969Z,48.10
2019-05-21T04:14:54.740Z,55.20
2019-05-21T04:17:42.620Z,53.00
2019-05-21T04:20:12.807Z,54.73
2019-05-21T04:22:54.368Z,57.40
2019-05-21T04:25:24.232Z,59.43
2019-05-21T04:27:54.078Z,51.73
2019-05-21T04:30:23.961Z,52.57
2019-05-21T04:32:53.735Z,56.57
2019-05-21T04:35:23.507Z,53.37
2019-05-21T04:37:53.270Z,55.13
2019-05-21T04:40:23.100Z,49.00
2019-05-21T04:42:52.855Z,52.53
2019-05-21T04:45:22.687Z,50.27
2019-05-21T04:47:52.446Z,49.33
2019-05-21T04:50:22.318Z,44.20
2019-05-21T04:52:58.956Z,41.47
2019-05-21T04:55:28.700Z,44.10
2019-05-21T04:57:58.520Z,42.07
2019-05-21T05:00:28.426Z,39.57
2019-05-21T05:02:58.387Z,41.23
2019-05-21T05:05:28.298Z,38.60
2019-05-21T05:07:58.214Z,37.73
2019-05-21T05:10:28.166Z,40.07
2019-05-21T05:12:57.995Z,38.83
2019-05-21T05:15:27.787Z,34.33
2019-05-21T05:17:57.633Z,40.37
2019-05-21T05:20:27.533Z,37.50
2019-05-21T05:22:57.360Z,35.13
2019-05-21T05:25:27.156Z,33.37
2019-05-21T05:27:56.980Z,33.20
2019-05-21T05:30:26.791Z,30.00
2019-05-21T05:32:56.488Z,30.20
2019-05-21T05:35:26.181Z,32.43
2019-05-21T05:37:55.985Z,29.70
2019-05-21T05:40:28.272Z,27.57
2019-05-21T05:42:58.418Z,30.80
2019-05-21T05:45:28.596Z,31.53
2019-05-21T05:47:58.728Z,32.33
2019-05-21T05:50:37.869Z,30.30
2019-05-21T05:53:07.658Z,27.47
2019-05-21T05:55:37.323Z,28.80
2019-05-21T05:58:07.072Z,29.03
2019-05-21T06:00:36.885Z,27.90
2019-05-21T06:03:06.664Z,27.57
2019-05-21T06:05:36.587Z,25.63
2019-05-21T06:08:06.326Z,24.23
2019-05-21T06:10:39.859Z,25.23
2019-05-21T06:13:07.623Z,28.30
2019-05-21T06:15:37.386Z,22.50
2019-05-21T06:18:07.266Z,22.37
2019-05-21T06:20:36.975Z,24.10
2019-05-21T06:23:06.720Z,27.40
2019-05-21T06:25:36.508Z,24.67
2019-05-21T06:28:06.188Z,28.67
2019-05-21T06:30:35.898Z,25.17
2019-05-21T06:33:05.743Z,27.63
2019-05-21T06:35:35.469Z,27.87
2019-05-21T06:38:17.349Z,28.03
2019-05-21T06:40:38.566Z,31.37
2019-05-21T06:43:08.435Z,31.77
2019-05-21T06:45:38.202Z,28.50
2019-05-21T06:48:07.958Z,32.33
2019-05-21T06:50:37.963Z,35.60
2019-05-21T06:53:08.190Z,35.27
2019-05-21T06:55:37.937Z,33.73
2019-05-21T06:58:07.746Z,29.70
2019-05-21T07:00:37.470Z,34.20
2019-05-21T07:03:07.248Z,31.63
2019-05-21T07:05:36.962Z,30.40
2019-05-21T07:08:06.722Z,30.53
2019-05-21T07:10:36.445Z,32.27
2019-05-21T07:13:06.194Z,32.40
2019-05-21T07:15:35.906Z,31.93
2019-05-21T07:18:05.784Z,32.97
2019-05-21T07:20:35.498Z,33.27
2019-05-21T07:23:06.346Z,31.43
2019-05-21T07:25:36.162Z,34.00
2019-05-21T07:28:05.952Z,31.40
2019-05-21T07:30:35.807Z,32.10
2019-05-21T07:33:06.266Z,32.03
2019-05-21T07:35:36.414Z,31.60
2019-05-21T07:38:06.179Z,30.70
2019-05-21T07:40:35.902Z,28.60
2019-05-21T07:43:05.619Z,29.03
2019-05-21T07:45:35.458Z,27.80
2019-05-21T07:48:05.298Z,25.50
2019-05-21T07:50:35.079Z,28.47
2019-05-21T07:53:05.431Z,27.67
2019-05-21T07:55:35.156Z,23.97
2019-05-21T07:58:04.925Z,25.57
2019-05-21T08:00:34.781Z,28.57
2019-05-21T08:03:04.509Z,27.00
2019-05-21T08:05:34.251Z,27.93
2019-05-21T08:08:04.191Z,26.20
2019-05-21T08:10:33.964Z,26.37
2019-05-21T08:13:03.747Z,27.00
2019-05-21T08:15:33.422Z,28.67
2019-05-21T08:18:03.218Z,26.97
2019-05-21T08:20:32.898Z,24.57
2019-05-21T08:23:02.695Z,32.17
2019-05-21T08:25:32.616Z,34.07
2019-05-21T08:28:02.350Z,32.00
2019-05-21T08:30:32.030Z,27.20
2019-05-21T08:33:01.919Z,45.00
2019-05-21T08:35:31.674Z,53.10
2019-05-21T08:38:01.457Z,27.40
2019-05-21T08:40:31.372Z,27.87
2019-05-21T08:43:01.402Z,25.97
2019-05-21T08:45:31.157Z,28.47
2019-05-21T08:48:00.952Z,28.07
2019-05-21T08:50:30.795Z,26.40
2019-05-21T08:53:03.224Z,33.47
2019-05-21T08:55:32.153Z,26.73
2019-05-21T08:58:06.847Z,27.27
2019-05-21T09:00:33.664Z,27.07
2019-05-21T09:03:03.534Z,30.10
2019-05-21T09:05:33.349Z,30.33
2019-05-21T09:08:03.102Z,26.67
2019-05-21T09:10:32.848Z,24.43
2019-05-21T09:13:02.697Z,26.70
2019-05-21T09:15:32.424Z,25.43
2019-05-21T09:18:02.211Z,27.03
2019-05-21T09:20:32.149Z,24.83
2019-05-21T09:23:01.904Z,22.87
2019-05-21T09:25:31.800Z,24.77
2019-05-21T09:28:01.622Z,26.10
2019-05-21T09:30:31.416Z,25.10
2019-05-21T09:33:02.649Z,23.10
2019-05-21T09:35:32.406Z,23.60
2019-05-21T09:38:02.218Z,25.40
2019-05-21T09:40:32.447Z,26.83
2019-05-21T09:43:02.357Z,26.83
2019-05-21T09:45:32.139Z,30.27
2019-05-21T09:48:02.038Z,29.67
2019-05-21T09:50:32.010Z,27.40
2019-05-21T09:53:01.892Z,29.63
2019-05-21T09:55:33.721Z,29.77
2019-05-21T09:58:13.836Z,26.87
2019-05-21T10:00:54.572Z,25.37
2019-05-21T10:03:31.882Z,26.67
2019-05-21T10:06:01.752Z,27.80
2019-05-21T10:08:31.453Z,25.73
2019-05-21T10:11:01.437Z,27.73
2019-05-21T10:13:31.229Z,25.57
2019-05-21T10:16:01.654Z,28.90
2019-05-21T10:18:31.532Z,24.93
2019-05-21T10:21:01.367Z,25.73
2019-05-21T10:23:31.235Z,29.70
2019-05-21T10:26:01.021Z,25.87
2019-05-21T10:28:30.772Z,29.93
2019-05-21T10:31:00.805Z,29.47
2019-05-21T10:33:30.622Z,26.90
2019-05-21T10:36:00.420Z,34.17
2019-05-21T10:38:30.247Z,30.23
2019-05-21T10:41:00.061Z,28.53
2019-05-21T10:43:29.929Z,28.93
2019-05-21T10:45:59.664Z,33.10
2019-05-21T10:48:29.467Z,28.43
2019-05-21T10:50:59.341Z,29.33
2019-05-21T10:53:29.284Z,30.70
2019-05-21T10:55:59.010Z,27.90
2019-05-21T10:58:28.814Z,30.33
2019-05-21T11:01:00.294Z,28.50
2019-05-21T11:03:31.675Z,29.90
2019-05-21T11:06:10.002Z,28.17
2019-05-21T11:08:33.171Z,29.97
2019-05-21T11:11:03.069Z,32.17
2019-05-21T11:13:32.905Z,33.17
2019-05-21T11:16:02.943Z,32.73
2019-05-21T11:18:32.721Z,30.70
2019-05-21T11:21:02.520Z,33.17
2019-05-21T11:23:32.273Z,33.20
2019-05-21T11:26:02.242Z,29.33
2019-05-21T11:28:32.030Z,29.50
2019-05-21T11:31:01.877Z,30.83
2019-05-21T11:33:31.643Z,33.53
2019-05-21T11:36:01.396Z,30.80
2019-05-21T11:38:39.486Z,30.13
2019-05-21T11:41:02.655Z,34.63
2019-05-21T11:43:32.406Z,33.43
2019-05-21T11:46:03.174Z,33.90
2019-05-21T11:48:33.370Z,30.83
2019-05-21T11:51:03.341Z,34.07
2019-05-21T11:53:33.289Z,30.93
2019-05-21T11:56:03.060Z,32.63
2019-05-21T11:58:39.390Z,33.63
2019-05-21T12:01:04.718Z,34.97
2019-05-21T12:03:34.661Z,32.30
2019-05-21T12:06:04.638Z,28.37
2019-05-21T12:08:34.502Z,33.53
2019-05-21T12:11:04.273Z,33.10
2019-05-21T12:13:34.066Z,31.60
2019-05-21T12:16:03.879Z,32.53
2019-05-21T12:18:33.585Z,36.37
2019-05-21T12:21:03.426Z,34.63
2019-05-21T12:23:33.127Z,30.00
2019-05-21T12:26:02.977Z,33.47
2019-05-21T12:28:32.705Z,31.77
2019-05-21T12:31:02.448Z,33.07
2019-05-21T12:33:35.007Z,34.20
2019-05-21T12:36:04.352Z,36.67
2019-05-21T12:38:34.119Z,36.87
2019-05-21T12:41:03.925Z,44.47
2019-05-21T12:43:33.773Z,41.43
2019-05-21T12:46:03.692Z,40.07
2019-05-21T12:48:33.586Z,37.07
2019-05-21T12:51:03.432Z,39.63
2019-05-21T12:53:33.215Z,41.70
2019-05-21T12:56:03.070Z,42.50
2019-05-21T12:58:32.845Z,49.70
2019-05-21T13:01:02.721Z,43.40
2019-05-21T13:03:32.511Z,40.93
2019-05-21T13:06:02.675Z,42.23
2019-05-21T13:08:32.712Z,42.43
2019-05-21T13:11:02.518Z,45.43
2019-05-21T13:13:32.282Z,42.00
2019-05-21T13:16:02.022Z,48.33
2019-05-21T13:18:31.802Z,42.13
2019-05-21T13:21:01.569Z,44.47
2019-05-21T13:23:31.474Z,46.33
2019-05-21T13:26:01.221Z,46.03
2019-05-21T13:28:31.039Z,39.67
2019-05-21T13:31:00.962Z,42.20
2019-05-21T13:33:30.764Z,39.77
2019-05-21T13:36:00.621Z,40.23
2019-05-21T13:38:30.365Z,40.50
2019-05-21T13:41:00.543Z,41.77
2019-05-21T13:43:30.343Z,41.83
2019-05-21T13:46:00.110Z,40.50
2019-05-21T13:48:29.919Z,38.73
2019-05-21T13:50:59.681Z,38.10
2019-05-21T13:53:29.542Z,41.93
2019-05-21T13:55:59.385Z,43.73
2019-05-21T13:58:29.151Z,46.50
2019-05-21T14:01:00.294Z,45.87
2019-05-21T14:03:30.188Z,46.03
2019-05-21T14:06:00.109Z,45.47
2019-05-21T14:08:29.974Z,44.67
2019-05-21T14:11:00.032Z,45.53
2019-05-21T14:13:29.821Z,40.90
2019-05-21T14:15:59.676Z,44.77
2019-05-21T14:18:29.519Z,45.23
2019-05-21T14:20:59.514Z,48.40
2019-05-21T14:23:29.288Z,45.23
2019-05-21T14:25:59.123Z,40.90
2019-05-21T14:28:28.956Z,42.57
2019-05-21T14:30:58.959Z,43.60
2019-05-21T14:33:28.872Z,42.00
2019-05-21T14:35:58.652Z,40.70
2019-05-21T14:38:28.591Z,44.23
2019-05-21T14:40:58.554Z,44.67
2019-05-21T14:43:28.378Z,42.30
2019-05-21T14:45:58.164Z,45.10
2019-05-21T14:48:28.023Z,43.53
2019-05-21T14:50:57.778Z,40.73
2019-05-21T14:53:27.656Z,43.57
2019-05-21T14:55:57.393Z,45.33
2019-05-21T14:58:27.152Z,42.10
2019-05-21T15:00:57.068Z,42.40
2019-05-21T15:03:29.504Z,40.57
2019-05-21T15:05:58.492Z,41.40
2019-05-21T15:08:28.238Z,43.93
2019-05-21T15:10:58.013Z,48.57
2019-05-21T15:13:27.740Z,45.33
2019-05-21T15:15:57.498Z,47.03
2019-05-21T15:18:27.293Z,48.10
2019-05-21T15:20:59.207Z,45.97
2019-05-21T15:23:29.228Z,48.00
2019-05-21T15:25:59.013Z,44.60
2019-05-21T15:28:29.008Z,107.63
2019-05-21T15:30:58.815Z,71.10
2019-05-21T15:33:28.609Z,63.93
2019-05-21T15:35:58.378Z,52.97
2019-05-21T15:38:28.179Z,43.73
2019-05-21T15:41:09.655Z,47.27
2019-05-21T15:43:29.706Z,45.63
2019-05-21T15:45:59.764Z,44.93
2019-05-21T15:48:29.853Z,47.30
2019-05-21T15:50:59.611Z,43.50
2019-05-21T15:53:31.107Z,44.87
2019-05-21T15:56:00.828Z,48.43
2019-05-21T15:58:30.693Z,51.70
2019-05-21T16:01:00.548Z,49.77
2019-05-21T16:03:30.352Z,52.07
2019-05-21T16:06:00.299Z,53.33
2019-05-21T16:08:30.178Z,49.27
2019-05-21T16:11:00.004Z,53.97
2019-05-21T16:13:29.832Z,60.00
2019-05-21T16:15:59.775Z,65.33
2019-05-21T16:18:29.598Z,58.77
2019-05-21T16:20:59.481Z,49.97
2019-05-21T16:23:29.424Z,63.70
2019-05-21T16:25:59.410Z,56.47
2019-05-21T16:28:29.195Z,61.97
2019-05-21T16:30:59.125Z,62.30
2019-05-21T16:33:29.064Z,58.00
2019-05-21T16:35:58.823Z,53.50
2019-05-21T16:38:28.725Z,55.43
2019-05-21T16:40:58.619Z,53.93
2019-05-21T16:43:28.381Z,49.57
2019-05-21T16:45:58.324Z,54.43
2019-05-21T16:48:29.482Z,54.43
2019-05-21T16:50:59.794Z,50.73
2019-05-21T16:53:33.278Z,55.67
2019-05-21T16:56:03.289Z,53.13
2019-05-21T16:58:33.362Z,54.60
2019-05-21T17:01:04.879Z,56.57
2019-05-21T17:03:36.600Z,52.70
2019-05-21T17:06:06.803Z,55.47
2019-05-21T17:08:36.624Z,61.93
2019-05-21T17:11:06.608Z,59.47
2019-05-21T17:13:36.507Z,55.30
2019-05-21T17:16:06.364Z,58.23
2019-05-21T17:18:36.114Z,56.73
2019-05-21T17:21:06.022Z,64.00
2019-05-21T17:23:36.022Z,56.00
2019-05-21T17:26:06.135Z,59.00
2019-05-21T17:28:35.807Z,58.60
2019-05-21T17:31:13.631Z,53.03
2019-05-21T17:36:14.537Z,50.37
2019-05-21T17:39:52.372Z,49.50
2019-05-21T17:42:42.016Z,55.53
2019-05-21T17:45:39.224Z,54.17
2019-05-21T17:48:10.892Z,58.67
2019-05-21T17:50:40.572Z,58.07
2019-05-21T17:53:11.265Z,60.67
2019-05-21T17:55:41.015Z,66.70
2019-05-21T17:58:10.808Z,60.97
2019-05-21T18:00:42.495Z,58.27
2019-05-21T18:03:12.742Z,46.33
2019-05-21T18:05:42.690Z,41.77
2019-05-21T18:08:12.479Z,48.40
2019-05-21T18:10:43.077Z,39.90
2019-05-21T18:13:13.307Z,41.30
2019-05-21T18:15:43.239Z,40.77
2019-05-21T18:18:13.054Z,46.00
2019-05-21T18:20:42.821Z,40.60
2019-05-21T18:23:12.555Z,40.80
2019-05-21T18:25:42.333Z,37.17
2019-05-21T18:28:12.040Z,40.60
2019-05-21T18:30:41.986Z,43.63
2019-05-21T18:33:11.787Z,39.77
2019-05-21T18:35:41.571Z,35.30
2019-05-21T18:38:11.297Z,36.67
2019-05-21T18:40:41.087Z,35.07
2019-05-21T18:43:10.847Z,39.23
2019-05-21T18:45:40.641Z,37.53
2019-05-21T18:48:10.401Z,40.17
2019-05-21T18:50:40.252Z,42.50
2019-05-21T18:53:10.297Z,35.87
2019-05-21T18:55:40.211Z,36.23
2019-05-21T18:58:09.989Z,35.60
2019-05-21T19:00:39.785Z,32.53
2019-05-21T19:03:09.727Z,38.17
2019-05-21T19:05:39.534Z,34.23
2019-05-21T19:08:09.244Z,32.43
2019-05-21T19:10:38.933Z,30.07
2019-05-21T19:13:08.718Z,35.03
2019-05-21T19:15:38.505Z,32.67
2019-05-21T19:18:08.258Z,31.93
2019-05-21T19:20:38.039Z,31.80
2019-05-21T19:23:08.106Z,30.83
2019-05-21T19:25:37.884Z,33.03
2019-05-21T19:28:07.624Z,34.47
2019-05-21T19:30:37.551Z,29.53
2019-05-21T19:33:07.646Z,31.17
2019-05-21T19:35:37.510Z,30.33
2019-05-21T19:38:07.214Z,27.60
2019-05-21T19:40:37.064Z,26.93
2019-05-21T19:43:06.735Z,27.53
2019-05-21T19:45:36.449Z,24.90
2019-05-21T19:48:06.198Z,19.27
2019-05-21T19:50:36.008Z,18.90
2019-05-21T19:53:05.937Z,14.90
2019-05-21T19:55:37.248Z,21.43
2019-05-21T19:58:07.000Z,16.73
2019-05-21T20:00:38.514Z,15.07
2019-05-21T20:03:09.203Z,11.43
2019-05-21T20:05:38.879Z,12.03
2019-05-21T20:08:09.009Z,10.43
2019-05-21T20:10:39.665Z,10.13
2019-05-21T20:13:09.467Z,10.10
2019-05-21T20:15:39.422Z,7.60
2019-05-21T20:18:09.576Z,7.00
2019-05-21T20:20:40.339Z,8.00
2019-05-21T20:23:10.630Z,9.03
2019-05-21T20:25:55.251Z,7.97
2019-05-21T20:28:13.197Z,7.23
2019-05-21T20:30:44.755Z,5.83
2019-05-21T20:33:15.930Z,5.23
2019-05-21T20:35:47.399Z,5.10
2019-05-21T20:38:18.475Z,5.27
2019-05-21T20:40:48.332Z,4.57
2019-05-21T20:43:18.328Z,4.97
2019-05-21T20:45:49.441Z,6.83
2019-05-21T20:48:21.427Z,6.97
2019-05-21T20:50:51.453Z,5.23
2019-05-21T20:53:22.101Z,6.23
2019-05-21T20:55:51.915Z,5.57
2019-05-21T20:58:22.875Z,7.10
2019-05-21T21:00:54.297Z,6.10
2019-05-21T21:03:24.656Z,8.27
2019-05-21T21:05:54.734Z,5.70
2019-05-21T21:08:27.857Z,6.13
2019-05-21T21:10:57.696Z,4.37
2019-05-21T21:13:28.377Z,5.37
2019-05-21T21:15:58.588Z,4.40
2019-05-21T21:18:29.155Z,5.90
2019-05-21T21:20:59.024Z,6.60
2019-05-21T21:23:30.294Z,7.03
2019-05-21T21:26:00.243Z,8.20
2019-05-21T21:28:30.134Z,7.33
2019-05-21T21:30:59.980Z,7.60
2019-05-21T21:33:30.649Z,7.40
2019-05-21T21:36:00.406Z,6.23
2019-05-21T21:38:31.929Z,7.00
2019-05-21T21:41:01.622Z,7.30
2019-05-21T21:43:31.522Z,6.80
2019-05-21T21:46:01.478Z,7.37
2019-05-21T21:48:32.105Z,8.07
2019-05-21T21:51:02.627Z,7.77
2019-05-21T21:53:33.369Z,8.50
2019-05-21T21:56:03.081Z,11.63
2019-05-21T21:58:32.757Z,7.20
2019-05-21T22:01:28.314Z,7.90
2019-05-21T22:04:01.726Z,7.33
2019-05-21T22:06:35.542Z,9.03
2019-05-21T22:09:07.896Z,7.00
2019-05-21T22:11:38.407Z,8.73
2019-05-21T22:14:08.335Z,7.10
2019-05-21T22:16:38.035Z,9.50
2019-05-21T22:19:08.417Z,8.00
2019-05-21T22:21:38.151Z,8.67
2019-05-21T22:24:08.178Z,11.17
2019-05-21T22:26:37.951Z,8.37
2019-05-21T22:29:07.703Z,9.07
2019-05-21T22:31:37.743Z,13.87
2019-05-21T22:34:07.559Z,10.13
2019-05-21T22:36:39.494Z,8.67
2019-05-21T22:39:11.283Z,11.80
2019-05-21T22:41:41.049Z,9.03
2019-05-21T22:44:10.828Z,9.07
2019-05-21T22:46:40.491Z,10.70
2019-05-21T22:49:11.105Z,8.37
2019-05-21T22:51:40.836Z,10.83
2019-05-21T22:54:40.911Z,11.27
2019-05-21T22:57:10.574Z,10.07
2019-05-21T22:59:40.275Z,9.07
2019-05-21T23:02:11.916Z,8.80
2019-05-21T23:04:41.769Z,7.43
2019-05-21T23:07:12.102Z,8.80
2019-05-21T23:09:41.882Z,8.20
2019-05-21T23:12:12.084Z,7.73
2019-05-21T23:14:42.095Z,11.03
2019-05-21T23:17:11.946Z,8.93
2019-05-21T23:19:42.121Z,8.70
2019-05-21T23:22:14.189Z,9.40
2019-05-21T23:24:44.025Z,7.17
2019-05-21T23:27:15.346Z,9.30
2019-05-21T23:29:45.125Z,7.80
2019-05-21T23:32:15.277Z,8.60
2019-05-21T23:34:46.360Z,7.17
2019-05-21T23:37:20.555Z,10.03
2019-05-21T23:39:53.144Z,7.33
2019-05-21T23:42:29.432Z,8.50
2019-05-21T23:44:54.915Z,7.97
2019-05-21T23:47:50.747Z,8.70
2019-05-21T23:50:20.645Z,9.13
2019-05-21T23:52:52.702Z,10.70
2019-05-21T23:55:22.679Z,9.67
2019-05-21T23:57:52.694Z,12.57
